This is the latest recevied weather packets stored in our database for station/object SQ5JP-4. If no packets are shown the sender has not sent any weather packets the latest 10 day(s).
| Time | Temp. | Humidity | Pressure | Rain* | Wind** | Luminosity | Snow |
|---|---|---|---|---|---|---|---|
| 1788018527 | 21.11° C | 100% | 995.5 hPa | - | - | - | - |
| 1788017627 | 21.11° C | 100% | 995.9 hPa | - | - | - | - |
| 1788016727 | 21.11° C | 100% | 995.7 hPa | - | - | - | - |
| 1788015827 | 21.67° C | 100% | 995.9 hPa | - | - | - | - |
| 1788010426 | 20.56° C | 100% | 995.3 hPa | - | - | - | - |
| 1788007727 | 18.89° C | 100% | 993.9 hPa | - | - | - | - |
| 1788006827 | 18.33° C | 100% | 993.8 hPa | - | - | - | - |
| 1788005926 | 18.33° C | 100% | 993.7 hPa | - | - | - | - |
| 1788005026 | 17.78° C | 100% | 993.7 hPa | - | - | - | - |
| 1788004126 | 17.78° C | 100% | 993.8 hPa | - | - | - | - |
| 1788003226 | 17.78° C | 100% | 993.8 hPa | - | - | - | - |
| 1788002326 | 17.22° C | 100% | 993.6 hPa | - | - | - | - |
| 1788001426 | 16.67° C | 100% | 993.6 hPa | - | - | - | - |
| 1788000526 | 16.11° C | 100% | 993.6 hPa | - | - | - | - |
| 1787999626 | 16.11° C | 100% | 993.6 hPa | - | - | - | - |
| 1787998726 | 15.56° C | 100% | 993.6 hPa | - | - | - | - |
| 1787997826 | 15.56° C | 100% | 993.4 hPa | - | - | - | - |
| 1787996025 | 15.56° C | 100% | 993.1 hPa | - | - | - | - |
| 1787995125 | 15.56° C | 100% | 993.2 hPa | - | - | - | - |
| 1787994225 | 16.11° C | 100% | 993.4 hPa | - | - | - | - |
| 1787993325 | 16.11° C | 100% | 993 hPa | - | - | - | - |
| 1787992424 | 16.11° C | 100% | 992.9 hPa | - | - | - | - |
| 1787991524 | 16.67° C | 100% | 993.5 hPa | - | - | - | - |
| 1787990624 | 16.67° C | 100% | 993.6 hPa | - | - | - | - |
| 1787989724 | 17.22° C | 100% | 993.9 hPa | - | - | - | - |
* Rain since midnight (hover to see other rain measurements)
** Current wind speed in m/s (hover to see current wind gust speed)